createdAt,value
2018-06-01T00:00:28.242Z,5.37
2018-06-01T00:02:55.690Z,5.70
2018-06-01T00:05:23.131Z,5.80
2018-06-01T00:07:50.588Z,5.60
2018-06-01T00:10:18.006Z,5.03
2018-06-01T00:12:46.222Z,5.77
2018-06-01T00:15:13.655Z,7.80
2018-06-01T00:17:41.085Z,6.07
2018-06-01T00:20:08.505Z,5.80
2018-06-01T00:22:35.937Z,5.60
2018-06-01T00:25:03.396Z,5.93
2018-06-01T00:27:30.813Z,6.03
2018-06-01T00:29:59.027Z,5.80
2018-06-01T00:32:26.446Z,6.03
2018-06-01T00:34:53.897Z,5.90
2018-06-01T00:37:21.318Z,7.00
2018-06-01T00:39:48.755Z,6.20
2018-06-01T00:42:16.190Z,6.87
2018-06-01T00:44:43.622Z,7.00
2018-06-01T00:47:11.057Z,7.77
2018-06-01T00:49:38.478Z,7.43
2018-06-01T00:52:05.918Z,6.23
2018-06-01T00:54:45.138Z,7.17
2018-06-01T00:57:13.342Z,6.47
2018-06-01T00:59:40.782Z,5.90
2018-06-01T01:02:08.203Z,5.50
2018-06-01T01:04:35.634Z,4.83
2018-06-01T01:07:03.067Z,5.43
2018-06-01T01:09:30.506Z,5.57
2018-06-01T01:11:57.943Z,4.60
2018-06-01T01:14:26.164Z,4.60
2018-06-01T01:16:53.594Z,4.87
2018-06-01T01:19:21.035Z,4.30
2018-06-01T01:21:48.477Z,4.40
2018-06-01T01:24:15.914Z,4.20
2018-06-01T01:26:43.354Z,4.47
2018-06-01T01:29:10.794Z,4.20
2018-06-01T01:31:38.234Z,5.07
2018-06-01T01:34:05.670Z,4.50
2018-06-01T01:36:33.884Z,4.30
2018-06-01T01:39:01.302Z,4.17
2018-06-01T01:41:28.758Z,4.60
2018-06-01T01:43:56.178Z,4.73
2018-06-01T01:46:23.613Z,3.97
2018-06-01T01:48:51.044Z,5.30
2018-06-01T01:51:18.477Z,5.43
2018-06-01T01:53:46.697Z,5.20
2018-06-01T01:56:14.155Z,4.67
2018-06-01T01:58:41.573Z,4.53
2018-06-01T02:01:09.000Z,4.43
2018-06-01T02:03:36.486Z,4.47
2018-06-01T02:06:04.705Z,4.67
2018-06-01T02:08:32.125Z,5.13
2018-06-01T02:10:59.559Z,4.83
2018-06-01T02:13:27.002Z,5.87
2018-06-01T02:15:54.434Z,4.43
2018-06-01T02:18:21.854Z,5.40
2018-06-01T02:20:49.298Z,4.03
2018-06-01T02:23:16.722Z,4.60
2018-06-01T02:25:44.201Z,4.80
2018-06-01T02:28:11.630Z,5.10
2018-06-01T02:30:39.055Z,4.30
2018-06-01T02:33:06.486Z,4.13
2018-06-01T02:35:34.698Z,4.80
2018-06-01T02:38:02.123Z,4.30
2018-06-01T02:40:29.547Z,4.50
2018-06-01T02:42:56.974Z,4.40
2018-06-01T02:45:24.407Z,4.37
2018-06-01T02:47:51.964Z,4.80
2018-06-01T02:50:19.386Z,4.20
2018-06-01T02:52:46.830Z,4.47
2018-06-01T02:55:14.258Z,4.53
2018-06-01T02:57:41.706Z,3.57
2018-06-01T03:00:09.121Z,3.90
2018-06-01T03:02:37.322Z,4.00
2018-06-01T03:05:04.742Z,4.57
2018-06-01T03:07:32.182Z,3.73
2018-06-01T03:09:59.614Z,3.90
2018-06-01T03:12:27.038Z,3.70
2018-06-01T03:14:55.243Z,3.87
2018-06-01T03:17:22.667Z,3.90
2018-06-01T03:19:50.097Z,4.50
2018-06-01T03:22:17.518Z,4.63
2018-06-01T03:24:44.966Z,3.87
2018-06-01T03:27:12.382Z,4.13
2018-06-01T03:29:40.607Z,4.03
2018-06-01T03:32:08.039Z,4.30
2018-06-01T03:34:35.479Z,3.70
2018-06-01T03:37:02.902Z,3.87
2018-06-01T03:39:30.342Z,4.80
2018-06-01T03:41:57.769Z,4.40
2018-06-01T03:44:25.190Z,3.90
2018-06-01T03:46:52.618Z,3.60
2018-06-01T03:49:20.051Z,4.33
2018-06-01T03:51:47.674Z,4.00
2018-06-01T03:54:15.098Z,3.70
2018-06-01T03:56:42.537Z,4.27
2018-06-01T03:59:09.962Z,4.17
2018-06-01T04:01:37.398Z,3.90
2018-06-01T04:04:05.596Z,4.30
2018-06-01T04:06:33.030Z,4.00
2018-06-01T04:09:00.449Z,3.80
2018-06-01T04:11:29.003Z,3.87
2018-06-01T04:13:56.442Z,4.40
2018-06-01T04:16:23.898Z,4.27
2018-06-01T04:18:51.331Z,3.97
2018-06-01T04:21:18.758Z,4.50
2018-06-01T04:23:46.200Z,4.27
2018-06-01T04:26:13.627Z,4.50
2018-06-01T04:28:41.070Z,4.20
2018-06-01T04:31:08.498Z,4.47
2018-06-01T04:33:35.927Z,4.33
2018-06-01T04:36:03.438Z,4.50
2018-06-01T04:38:31.634Z,4.33
2018-06-01T04:40:59.061Z,4.70
2018-06-01T04:43:26.494Z,3.93
2018-06-01T04:45:53.931Z,4.07
2018-06-01T04:48:21.377Z,4.23
2018-06-01T04:50:48.818Z,4.70
2018-06-01T04:53:16.238Z,4.30
2018-06-01T04:55:43.674Z,4.20
2018-06-01T04:58:11.154Z,4.23
2018-06-01T05:00:38.590Z,4.03
2018-06-01T05:03:06.009Z,4.13
2018-06-01T05:05:33.451Z,4.03
2018-06-01T05:08:01.648Z,4.07
2018-06-01T05:10:29.085Z,4.07
2018-06-01T05:12:56.522Z,4.00
2018-06-01T05:15:24.710Z,3.00
2018-06-01T05:17:52.138Z,4.00
2018-06-01T05:20:19.574Z,3.90
2018-06-01T05:22:47.003Z,3.97
2018-06-01T05:25:14.426Z,4.07
2018-06-01T05:27:42.618Z,3.83
2018-06-01T05:30:10.059Z,4.00
2018-06-01T05:32:37.506Z,4.40
2018-06-01T05:35:04.935Z,3.60
2018-06-01T05:37:32.370Z,3.57
2018-06-01T05:39:59.838Z,4.20
2018-06-01T05:42:27.277Z,3.73
2018-06-01T05:44:54.713Z,3.57
2018-06-01T05:47:22.209Z,4.40
2018-06-01T05:49:49.601Z,4.30
2018-06-01T05:52:17.026Z,3.77
2018-06-01T05:54:44.470Z,3.60
2018-06-01T05:57:11.914Z,4.10
2018-06-01T05:59:39.333Z,4.70
2018-06-01T06:02:07.544Z,5.73
2018-06-01T06:04:35.015Z,4.27
2018-06-01T06:07:02.412Z,5.00
2018-06-01T06:09:29.850Z,4.63
2018-06-01T06:11:57.386Z,4.83
2018-06-01T06:14:24.835Z,3.97
2018-06-01T06:16:52.269Z,4.93
2018-06-01T06:19:19.695Z,4.70
2018-06-01T06:21:47.783Z,4.80
2018-06-01T06:24:15.230Z,5.50
2018-06-01T06:26:42.698Z,4.67
2018-06-01T06:29:10.123Z,4.67
2018-06-01T06:31:37.569Z,5.20
2018-06-01T06:34:05.007Z,5.40
2018-06-01T06:36:32.426Z,5.47
2018-06-01T06:39:00.625Z,4.80
2018-06-01T06:41:28.057Z,5.47
2018-06-01T06:43:55.499Z,5.67
2018-06-01T06:46:22.946Z,6.00
2018-06-01T06:48:50.447Z,4.80
2018-06-01T06:51:17.885Z,5.90
2018-06-01T06:53:46.088Z,4.80
2018-06-01T06:56:13.533Z,5.43
2018-06-01T06:58:40.974Z,4.40
2018-06-01T07:01:09.180Z,6.30
2018-06-01T07:03:36.602Z,4.50
2018-06-01T07:06:04.826Z,4.63
2018-06-01T07:08:32.258Z,4.90
2018-06-01T07:10:59.693Z,4.77
2018-06-01T07:13:27.120Z,4.77
2018-06-01T07:15:54.555Z,4.93
2018-06-01T07:18:21.998Z,4.90
2018-06-01T07:20:49.439Z,4.40
2018-06-01T07:23:16.885Z,4.60
2018-06-01T07:25:45.091Z,4.63
2018-06-01T07:28:12.525Z,4.23
2018-06-01T07:30:39.990Z,4.80
2018-06-01T07:33:07.439Z,5.70
2018-06-01T07:35:34.882Z,4.83
2018-06-01T07:38:02.306Z,5.07
2018-06-01T07:40:29.742Z,4.93
2018-06-01T07:42:57.183Z,5.50
2018-06-01T07:45:24.634Z,5.80
2018-06-01T07:47:52.074Z,4.70
2018-06-01T07:50:20.348Z,5.10
2018-06-01T07:52:48.571Z,4.33
2018-06-01T07:55:16.007Z,4.57
2018-06-01T07:57:43.450Z,4.53
2018-06-01T08:00:10.898Z,5.00
2018-06-01T08:02:39.086Z,4.47
2018-06-01T08:05:06.536Z,4.80
2018-06-01T08:07:34.021Z,5.70
2018-06-01T08:10:01.439Z,4.80
2018-06-01T08:12:29.654Z,5.00
2018-06-01T08:14:57.205Z,5.27
2018-06-01T08:17:24.638Z,4.80
2018-06-01T08:19:52.082Z,4.70
2018-06-01T08:22:20.298Z,7.37
2018-06-01T08:24:47.749Z,6.37
2018-06-01T08:27:15.189Z,5.40
2018-06-01T08:29:42.650Z,5.70
2018-06-01T08:32:10.070Z,5.77
2018-06-01T08:34:37.528Z,5.40
2018-06-01T08:37:05.070Z,6.10
2018-06-01T08:39:32.511Z,5.03
2018-06-01T08:41:59.918Z,5.80
2018-06-01T08:44:27.382Z,4.30
2018-06-01T08:46:54.816Z,5.20
2018-06-01T08:49:22.274Z,4.47
2018-06-01T08:51:49.698Z,4.90
2018-06-01T08:54:17.146Z,5.00
2018-06-01T08:56:44.579Z,4.73
2018-06-01T08:59:12.207Z,4.30
2018-06-01T09:01:39.586Z,4.10
2018-06-01T09:04:07.070Z,4.20
2018-06-01T09:06:34.522Z,4.33
2018-06-01T09:09:01.979Z,4.60
2018-06-01T09:11:29.418Z,4.00
2018-06-01T09:13:56.847Z,6.10
2018-06-01T09:16:24.286Z,4.13
2018-06-01T09:18:51.726Z,4.90
2018-06-01T09:21:19.246Z,4.07
2018-06-01T09:23:46.725Z,4.77
2018-06-01T09:26:14.146Z,4.83
2018-06-01T09:28:41.582Z,5.60
2018-06-01T09:31:09.034Z,3.67
2018-06-01T09:33:36.480Z,5.80
2018-06-01T09:36:03.926Z,4.10
2018-06-01T09:38:31.369Z,3.40
2018-06-01T09:40:58.794Z,4.80
2018-06-01T09:43:26.361Z,3.77
2018-06-01T09:45:53.798Z,3.37
2018-06-01T09:48:21.248Z,4.00
2018-06-01T09:50:48.665Z,4.43
2018-06-01T09:53:16.108Z,3.57
2018-06-01T09:55:43.529Z,3.87
2018-06-01T09:58:11.752Z,3.50
2018-06-01T10:00:44.926Z,3.90
2018-06-01T10:03:12.357Z,3.20
2018-06-01T10:05:40.761Z,4.03
2018-06-01T10:08:08.171Z,3.87
2018-06-01T10:10:36.378Z,4.67
2018-06-01T10:13:03.794Z,7.53
2018-06-01T10:15:31.243Z,4.27
2018-06-01T10:17:58.690Z,3.70
2018-06-01T10:20:26.172Z,4.07
2018-06-01T10:22:53.611Z,3.63
2018-06-01T10:25:21.058Z,5.20
2018-06-01T10:27:48.575Z,3.53
2018-06-01T10:30:16.032Z,3.63
2018-06-01T10:32:44.236Z,4.50
2018-06-01T10:35:12.360Z,4.63
2018-06-01T10:37:40.558Z,3.60
2018-06-01T10:40:08.014Z,3.83
2018-06-01T10:42:35.449Z,4.20
2018-06-01T10:45:02.902Z,3.80
2018-06-01T10:47:30.333Z,3.27
2018-06-01T10:49:57.851Z,3.73
2018-06-01T10:52:25.321Z,4.60
2018-06-01T10:54:52.749Z,3.97
2018-06-01T10:57:20.198Z,3.63
2018-06-01T10:59:47.644Z,3.57
2018-06-01T11:02:15.148Z,3.43
2018-06-01T11:04:42.599Z,3.13
2018-06-01T11:07:10.061Z,3.07
2018-06-01T11:09:37.529Z,2.30
2018-06-01T11:12:04.956Z,2.93
2018-06-01T11:14:32.452Z,3.73
2018-06-01T11:17:00.644Z,3.27
2018-06-01T11:19:28.091Z,3.30
2018-06-01T11:21:55.529Z,3.70
2018-06-01T11:24:23.053Z,3.40
2018-06-01T11:26:51.278Z,3.80
2018-06-01T11:29:18.715Z,3.10
2018-06-01T11:31:46.178Z,4.03
2018-06-01T11:34:13.655Z,3.50
2018-06-01T11:36:41.093Z,3.30
2018-06-01T11:39:08.535Z,4.03
2018-06-01T11:41:35.978Z,4.40
2018-06-01T11:44:03.435Z,4.20
2018-06-01T11:46:30.871Z,3.90
2018-06-01T11:48:58.310Z,4.00
2018-06-01T11:51:25.751Z,3.93
2018-06-01T11:53:53.241Z,3.40
2018-06-01T11:56:20.695Z,3.27
2018-06-01T11:58:48.135Z,3.13
2018-06-01T12:01:15.582Z,3.40
2018-06-01T12:03:43.032Z,3.23
2018-06-01T12:06:10.488Z,2.80
2018-06-01T12:08:37.935Z,2.97
2018-06-01T12:11:05.390Z,3.30
2018-06-01T12:13:32.824Z,4.03
2018-06-01T12:16:00.356Z,3.57
2018-06-01T12:18:27.807Z,4.10
2018-06-01T12:20:55.218Z,3.67
2018-06-01T12:23:22.673Z,3.67
2018-06-01T12:25:50.316Z,3.27
2018-06-01T12:28:17.742Z,3.80
2018-06-01T12:30:45.959Z,3.93
2018-06-01T12:33:13.382Z,3.30
2018-06-01T12:35:40.860Z,4.23
2018-06-01T12:38:08.294Z,3.50
2018-06-01T12:40:35.761Z,3.80
2018-06-01T12:43:03.938Z,3.90
2018-06-01T12:45:31.387Z,3.80
2018-06-01T12:47:58.850Z,3.40
2018-06-01T12:50:26.287Z,4.13
2018-06-01T12:52:54.498Z,4.90
2018-06-01T12:55:21.942Z,3.67
2018-06-01T12:57:49.376Z,4.13
2018-06-01T13:00:17.606Z,5.40
2018-06-01T13:02:45.026Z,4.80
2018-06-01T13:05:12.502Z,4.10
2018-06-01T13:07:39.916Z,4.03
2018-06-01T13:10:08.149Z,2.90
2018-06-01T13:12:35.588Z,2.77
2018-06-01T13:15:03.095Z,2.60
2018-06-01T13:17:30.544Z,3.20
2018-06-01T13:19:58.102Z,3.03
2018-06-01T13:22:25.691Z,3.07
2018-06-01T13:24:53.898Z,3.20
2018-06-01T13:27:21.323Z,4.00
2018-06-01T13:29:48.810Z,3.63
2018-06-01T13:32:16.198Z,4.30
2018-06-01T13:34:43.643Z,3.70
2018-06-01T13:37:11.110Z,3.20
2018-06-01T13:39:38.517Z,4.53
2018-06-01T13:42:05.978Z,3.80
2018-06-01T13:44:33.422Z,3.50
2018-06-01T13:47:00.863Z,7.00
2018-06-01T13:49:28.302Z,3.43
2018-06-01T13:51:55.792Z,3.80
2018-06-01T13:54:23.230Z,3.43
2018-06-01T13:56:50.674Z,3.43
2018-06-01T13:59:18.130Z,3.67
2018-06-01T14:01:45.566Z,3.80
2018-06-01T14:04:13.030Z,3.57
2018-06-01T14:06:40.487Z,2.90
2018-06-01T14:09:07.917Z,3.40
2018-06-01T14:11:35.350Z,4.07
2018-06-01T14:14:02.790Z,4.00
2018-06-01T14:16:31.002Z,3.00
2018-06-01T14:18:58.438Z,3.50
2018-06-01T14:21:25.875Z,4.10
2018-06-01T14:23:53.330Z,3.43
2018-06-01T14:26:20.772Z,4.10
2018-06-01T14:28:48.268Z,3.60
2018-06-01T14:31:15.706Z,4.60
2018-06-01T14:33:43.138Z,3.83
2018-06-01T14:36:10.592Z,4.37
2018-06-01T14:38:38.031Z,3.00
2018-06-01T14:41:05.469Z,7.87
2018-06-01T14:43:32.914Z,5.00
2018-06-01T14:46:00.342Z,3.40
2018-06-01T14:48:28.540Z,3.00
2018-06-01T14:50:55.978Z,2.73
2018-06-01T14:53:24.169Z,2.57
2018-06-01T14:55:51.598Z,2.97
2018-06-01T14:58:19.038Z,3.40
2018-06-01T15:00:46.502Z,2.93
2018-06-01T15:03:14.127Z,2.73
2018-06-01T15:05:41.569Z,2.80
2018-06-01T15:08:08.998Z,2.40
2018-06-01T15:10:37.194Z,2.90
2018-06-01T15:13:04.639Z,2.43
2018-06-01T15:15:32.108Z,2.67
2018-06-01T15:17:59.539Z,3.10
2018-06-01T15:20:27.758Z,2.60
2018-06-01T15:22:55.218Z,4.00
2018-06-01T15:25:22.688Z,3.30
2018-06-01T15:27:50.094Z,3.00
2018-06-01T15:30:17.535Z,3.03
2018-06-01T15:32:44.977Z,2.63
2018-06-01T15:35:12.414Z,2.43
2018-06-01T15:37:39.858Z,4.40
2018-06-01T15:40:07.290Z,2.43
2018-06-01T15:42:34.725Z,2.40
2018-06-01T15:45:02.153Z,2.37
2018-06-01T15:47:29.592Z,2.63
2018-06-01T15:49:57.038Z,2.50
2018-06-01T15:52:24.459Z,2.30
2018-06-01T15:54:52.318Z,2.80
2018-06-01T15:57:19.766Z,2.30
2018-06-01T15:59:47.202Z,2.70
2018-06-01T16:02:14.670Z,2.60
2018-06-01T16:04:42.086Z,2.90
2018-06-01T16:07:09.534Z,3.53
2018-06-01T16:09:36.971Z,3.60
2018-06-01T16:12:04.414Z,3.40
2018-06-01T16:14:32.610Z,3.53
2018-06-01T16:17:00.038Z,2.73
2018-06-01T16:19:27.466Z,3.07
2018-06-01T16:21:54.899Z,4.30
2018-06-01T16:24:22.342Z,3.10
2018-06-01T16:26:49.766Z,2.80
2018-06-01T16:29:17.983Z,3.50
2018-06-01T16:31:45.418Z,3.50
2018-06-01T16:34:12.869Z,4.70
2018-06-01T16:36:41.051Z,5.20
2018-06-01T16:39:08.706Z,3.20
2018-06-01T16:41:36.147Z,5.10
2018-06-01T16:44:03.590Z,3.30
2018-06-01T16:46:31.039Z,2.90
2018-06-01T16:48:58.482Z,3.93
2018-06-01T16:51:25.918Z,3.20
2018-06-01T16:53:53.346Z,3.40
2018-06-01T16:56:21.558Z,3.60
2018-06-01T16:58:49.046Z,3.20
2018-06-01T17:01:16.405Z,2.80
2018-06-01T17:03:43.847Z,4.20
2018-06-01T17:06:11.267Z,3.33
2018-06-01T17:08:38.717Z,3.60
2018-06-01T17:11:06.186Z,4.63
2018-06-01T17:13:33.621Z,5.20
2018-06-01T17:16:01.826Z,3.77
2018-06-01T17:18:29.247Z,4.77
2018-06-01T17:20:56.686Z,6.17
2018-06-01T17:23:24.150Z,4.80
2018-06-01T17:25:52.363Z,6.80
2018-06-01T17:28:19.790Z,5.50
2018-06-01T17:30:48.003Z,4.60
2018-06-01T17:33:15.448Z,3.97
2018-06-01T17:35:42.974Z,3.60
2018-06-01T17:38:10.410Z,5.00
2018-06-01T17:40:37.849Z,4.50
2018-06-01T17:43:05.285Z,4.00
2018-06-01T17:45:32.870Z,3.50
2018-06-01T17:48:00.298Z,6.70
2018-06-01T17:50:27.878Z,4.63
2018-06-01T17:52:55.315Z,3.67
2018-06-01T17:55:22.772Z,3.90
2018-06-01T17:57:50.191Z,3.97
2018-06-01T18:00:17.626Z,4.20
2018-06-01T18:02:45.071Z,5.10
2018-06-01T18:05:12.504Z,3.73
2018-06-01T18:07:39.966Z,4.50
2018-06-01T18:10:07.415Z,4.50
2018-06-01T18:12:34.859Z,4.20
2018-06-01T18:15:02.279Z,3.60
2018-06-01T18:17:29.710Z,4.50
2018-06-01T18:19:57.160Z,4.50
2018-06-01T18:22:24.615Z,5.13
2018-06-01T18:24:52.075Z,4.40
2018-06-01T18:27:19.478Z,4.30
2018-06-01T18:29:47.026Z,4.60
2018-06-01T18:32:15.218Z,4.00
2018-06-01T18:34:42.700Z,4.10
2018-06-01T18:37:10.094Z,5.67
2018-06-01T18:39:37.513Z,3.80
2018-06-01T18:42:04.936Z,5.13
2018-06-01T18:44:32.369Z,8.87
2018-06-01T18:46:59.818Z,4.27
2018-06-01T18:49:27.243Z,4.07
2018-06-01T18:51:54.789Z,4.57
2018-06-01T18:54:22.230Z,4.73
2018-06-01T18:56:49.669Z,5.33
2018-06-01T18:59:17.094Z,4.40
2018-06-01T19:01:44.531Z,4.80
2018-06-01T19:04:11.954Z,5.10
2018-06-01T19:06:39.389Z,4.73
2018-06-01T19:09:07.618Z,4.30
2018-06-01T19:11:35.026Z,4.50
2018-06-01T19:14:03.210Z,4.00
2018-06-01T19:16:30.653Z,3.63
2018-06-01T19:18:58.168Z,4.07
2018-06-01T19:21:25.607Z,4.20
2018-06-01T19:23:53.029Z,4.20
2018-06-01T19:26:20.454Z,4.73
2018-06-01T19:28:47.906Z,4.63
2018-06-01T19:31:15.331Z,4.77
2018-06-01T19:33:42.745Z,4.60
2018-06-01T19:36:10.190Z,4.83
2018-06-01T19:38:37.618Z,4.50
2018-06-01T19:41:05.069Z,4.70
2018-06-01T19:43:32.499Z,4.60
2018-06-01T19:45:59.922Z,4.70
2018-06-01T19:48:28.128Z,4.90
2018-06-01T19:50:55.550Z,4.00
2018-06-01T19:53:22.997Z,4.67
2018-06-01T19:55:50.471Z,4.53
2018-06-01T19:58:18.698Z,5.40
2018-06-01T20:00:46.131Z,4.70
2018-06-01T20:03:13.554Z,4.90
2018-06-01T20:05:40.999Z,5.13
2018-06-01T20:08:08.422Z,5.30
2018-06-01T20:10:35.862Z,4.77
2018-06-01T20:13:03.299Z,4.90
2018-06-01T20:15:30.724Z,7.87
2018-06-01T20:17:58.146Z,5.73
2018-06-01T20:20:25.587Z,5.47
2018-06-01T20:22:53.011Z,5.40
2018-06-01T20:25:21.215Z,6.00
2018-06-01T20:27:48.638Z,5.10
2018-06-01T20:30:16.078Z,6.07
2018-06-01T20:32:43.508Z,5.40
2018-06-01T20:35:10.938Z,5.90
2018-06-01T20:37:38.371Z,5.47
2018-06-01T20:40:06.586Z,5.20
2018-06-01T20:42:34.026Z,6.00
2018-06-01T20:45:01.463Z,5.40
2018-06-01T20:47:28.907Z,6.23
2018-06-01T20:49:56.326Z,5.50
2018-06-01T20:52:23.769Z,6.37
2018-06-01T20:54:51.189Z,6.63
2018-06-01T20:57:19.382Z,6.37
2018-06-01T20:59:46.802Z,6.13
2018-06-01T21:02:14.264Z,6.10
2018-06-01T21:04:41.694Z,5.73
2018-06-01T21:07:09.132Z,6.23
2018-06-01T21:09:36.585Z,5.90
2018-06-01T21:12:03.990Z,6.20
2018-06-01T21:14:32.198Z,7.10
2018-06-01T21:16:59.644Z,6.50
2018-06-01T21:19:27.053Z,6.70
2018-06-01T21:21:54.493Z,6.93
2018-06-01T21:24:22.008Z,6.53
2018-06-01T21:26:49.428Z,6.90
2018-06-01T21:29:16.858Z,6.03
2018-06-01T21:31:44.289Z,7.43
2018-06-01T21:34:11.734Z,6.60
2018-06-01T21:36:39.922Z,6.50
2018-06-01T21:39:07.367Z,6.33
2018-06-01T21:41:34.786Z,7.10
2018-06-01T21:44:02.242Z,6.83
2018-06-01T21:46:29.727Z,7.77
2018-06-01T21:48:57.192Z,6.20
2018-06-01T21:51:24.634Z,7.20
2018-06-01T21:53:52.066Z,7.20
2018-06-01T21:56:19.496Z,7.00
2018-06-01T21:58:46.919Z,6.60
2018-06-01T22:01:15.118Z,8.50
2018-06-01T22:03:42.542Z,8.27
2018-06-01T22:06:09.978Z,7.17
2018-06-01T22:08:37.462Z,7.13
2018-06-01T22:11:04.883Z,7.00
2018-06-01T22:13:32.326Z,6.60
2018-06-01T22:15:59.745Z,6.73
2018-06-01T22:18:27.177Z,6.43
2018-06-01T22:20:55.381Z,5.93
2018-06-01T22:23:22.852Z,6.60
2018-06-01T22:25:50.265Z,6.90
2018-06-01T22:28:17.741Z,5.47
2018-06-01T22:30:45.190Z,6.30
2018-06-01T22:33:12.630Z,6.00
2018-06-01T22:35:40.050Z,5.80
2018-06-01T22:38:07.482Z,5.80
2018-06-01T22:40:34.910Z,6.87
2018-06-01T22:43:03.126Z,6.70
2018-06-01T22:45:30.550Z,6.63
2018-06-01T22:47:57.978Z,5.93
2018-06-01T22:50:25.409Z,6.20
2018-06-01T22:52:52.864Z,5.30
2018-06-01T22:55:20.266Z,5.37
2018-06-01T22:57:48.468Z,5.33
2018-06-01T23:00:23.638Z,5.87
2018-06-01T23:02:51.083Z,5.20
2018-06-01T23:05:18.506Z,5.13
2018-06-01T23:07:45.950Z,5.87
2018-06-01T23:10:13.377Z,5.93
2018-06-01T23:12:40.809Z,6.00
2018-06-01T23:15:08.326Z,5.50
2018-06-01T23:17:35.746Z,5.20
2018-06-01T23:20:03.186Z,6.47
2018-06-01T23:22:30.618Z,6.43
2018-06-01T23:24:58.075Z,6.10
2018-06-01T23:27:25.502Z,6.70
2018-06-01T23:29:52.935Z,7.03
2018-06-01T23:32:20.364Z,7.00
2018-06-01T23:34:47.798Z,7.13
2018-06-01T23:37:15.434Z,6.50
2018-06-01T23:39:43.659Z,6.17
2018-06-01T23:42:11.092Z,5.90
2018-06-01T23:44:38.510Z,7.50
2018-06-01T23:47:05.946Z,6.43
2018-06-01T23:49:33.382Z,6.23
2018-06-01T23:52:00.808Z,6.27
2018-06-01T23:54:28.243Z,5.27
2018-06-01T23:56:55.669Z,4.93
2018-06-01T23:59:23.179Z,4.80
